createdAt,value
2022-09-07T00:01:09.389Z,1.83
2022-09-07T00:03:37.651Z,3.92
2022-09-07T00:06:10.727Z,3.22
2022-09-07T00:08:39.701Z,2.53
2022-09-07T00:11:12.977Z,4.57
2022-09-07T00:13:42.020Z,2.13
2022-09-07T00:16:12.867Z,2.47
2022-09-07T00:18:45.790Z,1.75
2022-09-07T00:21:16.116Z,1.58
2022-09-07T00:23:44.461Z,2.15
2022-09-07T00:26:17.801Z,1.48
2022-09-07T00:28:46.212Z,1.83
2022-09-07T00:31:16.579Z,2.65
2022-09-07T00:33:45.968Z,2.92
2022-09-07T00:36:14.295Z,3.72
2022-09-07T00:38:42.454Z,2.65
2022-09-07T00:41:11.601Z,2.75
2022-09-07T00:43:42.869Z,2.33
2022-09-07T00:46:15.567Z,4.03
2022-09-07T00:48:48.757Z,3.22
2022-09-07T00:51:21.719Z,5.85
2022-09-07T00:53:55.479Z,3.75
2022-09-07T00:56:25.828Z,2.25
2022-09-07T00:58:55.680Z,3.03
2022-09-07T01:01:24.107Z,2.42
2022-09-07T01:03:53.676Z,2.97
2022-09-07T01:06:25.153Z,3.83
2022-09-07T01:08:54.300Z,2.03
2022-09-07T01:11:24.032Z,2.90
2022-09-07T01:13:53.397Z,2.15
2022-09-07T01:16:36.924Z,4.45
2022-09-07T01:19:44.472Z,3.90
2022-09-07T01:22:33.645Z,3.10
2022-09-07T01:25:10.122Z,3.78
2022-09-07T01:28:03.372Z,4.00
2022-09-07T01:30:34.996Z,2.78
2022-09-07T01:33:30.809Z,2.95
2022-09-07T01:36:10.429Z,3.85
2022-09-07T01:38:43.013Z,5.38
2022-09-07T01:41:15.514Z,3.22
2022-09-07T01:43:50.929Z,5.57
2022-09-07T01:46:24.037Z,2.35
2022-09-07T01:48:55.343Z,4.70
2022-09-07T01:51:29.095Z,8.32
2022-09-07T01:54:00.518Z,4.60
2022-09-07T01:56:34.273Z,3.28
2022-09-07T01:59:06.796Z,2.90
2022-09-07T02:01:40.625Z,3.97
2022-09-07T02:04:12.272Z,4.15
2022-09-07T02:06:46.533Z,3.13
2022-09-07T02:09:20.222Z,5.45
2022-09-07T02:11:50.320Z,3.00
2022-09-07T02:14:25.419Z,2.53
2022-09-07T02:16:58.674Z,3.42
2022-09-07T02:19:31.044Z,3.08
2022-09-07T02:22:03.825Z,2.80
2022-09-07T02:24:37.659Z,4.07
2022-09-07T02:27:12.213Z,2.80
2022-09-07T02:29:43.269Z,4.93
2022-09-07T02:32:11.697Z,4.60
2022-09-07T02:34:39.947Z,4.32
2022-09-07T02:37:10.346Z,4.00
2022-09-07T02:39:38.798Z,2.85
2022-09-07T02:42:08.022Z,5.15
2022-09-07T02:44:38.211Z,2.47
2022-09-07T02:47:15.080Z,4.93
2022-09-07T02:50:04.179Z,4.40
2022-09-07T02:52:41.234Z,5.60
2022-09-07T02:55:16.709Z,6.05
2022-09-07T02:57:51.968Z,3.80
2022-09-07T03:00:26.021Z,3.78
2022-09-07T03:03:08.901Z,5.05
2022-09-07T03:05:42.506Z,4.07
2022-09-07T03:08:14.867Z,6.00
2022-09-07T03:10:44.089Z,5.30
2022-09-07T03:13:21.757Z,7.63
2022-09-07T03:15:54.984Z,7.72
2022-09-07T03:18:25.544Z,6.40
2022-09-07T03:20:53.673Z,5.65
2022-09-07T03:23:21.743Z,6.82
2022-09-07T03:25:49.897Z,4.10
2022-09-07T03:28:20.083Z,5.00
2022-09-07T03:30:48.434Z,5.43
2022-09-07T03:33:17.398Z,3.55
2022-09-07T03:35:47.816Z,7.18
2022-09-07T03:38:15.773Z,3.00
2022-09-07T03:40:43.808Z,5.70
2022-09-07T03:43:12.310Z,5.47
2022-09-07T03:45:40.669Z,2.72
2022-09-07T03:48:08.801Z,6.47
2022-09-07T03:50:36.759Z,3.30
2022-09-07T03:53:06.062Z,6.70
2022-09-07T03:55:34.040Z,4.40
2022-09-07T03:58:01.997Z,3.45
2022-09-07T04:00:30.063Z,4.20
2022-09-07T04:02:58.073Z,3.80
2022-09-07T04:05:26.082Z,5.30
2022-09-07T04:07:54.049Z,5.55
2022-09-07T04:10:23.381Z,4.97
2022-09-07T04:12:51.336Z,6.47
2022-09-07T04:15:19.356Z,3.17
2022-09-07T04:17:47.824Z,5.13
2022-09-07T04:20:16.046Z,5.18
2022-09-07T04:22:44.146Z,5.75
2022-09-07T04:25:12.217Z,4.38
2022-09-07T04:27:41.694Z,4.95
2022-09-07T04:30:10.787Z,4.97
2022-09-07T04:32:39.228Z,5.72
2022-09-07T04:35:08.772Z,3.90
2022-09-07T04:37:36.744Z,7.30
2022-09-07T04:40:05.446Z,4.72
2022-09-07T04:42:33.479Z,6.20
2022-09-07T04:45:02.945Z,4.22
2022-09-07T04:47:31.285Z,5.28
2022-09-07T04:49:59.265Z,4.07
2022-09-07T04:52:27.261Z,7.07
2022-09-07T04:54:55.235Z,5.45
2022-09-07T04:57:25.858Z,7.18
2022-09-07T04:59:53.863Z,5.88
2022-09-07T05:02:23.221Z,5.35
2022-09-07T05:04:52.787Z,9.70
2022-09-07T05:07:20.773Z,8.20
2022-09-07T05:09:48.809Z,6.32
2022-09-07T05:12:16.824Z,5.13
2022-09-07T05:14:44.816Z,4.97
2022-09-07T05:17:12.869Z,5.85
2022-09-07T05:19:42.416Z,7.22
2022-09-07T05:22:10.411Z,5.20
2022-09-07T05:24:38.604Z,6.10
2022-09-07T05:27:06.787Z,4.10
2022-09-07T05:32:22.803Z,7.72
2022-09-07T05:34:53.050Z,8.30
2022-09-07T05:37:21.282Z,5.10
2022-09-07T05:39:49.349Z,6.88
2022-09-07T05:42:17.439Z,11.48
2022-09-07T05:44:45.798Z,6.80
2022-09-07T05:47:14.849Z,5.53
2022-09-07T05:49:42.801Z,6.72
2022-09-07T05:52:12.178Z,4.70
2022-09-07T05:54:40.267Z,4.70
2022-09-07T05:57:08.717Z,8.40
2022-09-07T05:59:36.687Z,6.50
2022-09-07T06:02:05.243Z,6.82
2022-09-07T06:04:33.502Z,7.07
2022-09-07T06:12:39.228Z,7.53
2022-09-07T06:15:08.544Z,9.43
2022-09-07T06:17:38.380Z,13.68
2022-09-07T06:20:08.269Z,15.63
2022-09-07T06:22:37.350Z,9.43
2022-09-07T06:25:07.403Z,12.40
2022-09-07T06:27:35.413Z,6.78
2022-09-07T06:30:03.416Z,10.65
2022-09-07T06:32:46.848Z,7.18
2022-09-07T06:35:15.586Z,9.45
2022-09-07T06:37:44.540Z,6.80
2022-09-07T06:40:14.152Z,10.20
2022-09-07T06:42:42.270Z,8.85
2022-09-07T06:45:12.105Z,8.75
2022-09-07T06:47:40.762Z,7.47
2022-09-07T06:50:12.588Z,7.60
2022-09-07T06:55:29.992Z,5.72
2022-09-07T06:57:58.006Z,5.15
2022-09-07T07:00:26.105Z,7.68
2022-09-07T07:02:54.173Z,9.45
2022-09-07T07:05:22.168Z,10.15
2022-09-07T07:07:50.116Z,8.43
2022-09-07T07:10:23.626Z,6.85
2022-09-07T07:12:58.873Z,6.53
2022-09-07T07:15:29.278Z,9.70
2022-09-07T07:18:02.528Z,9.45
2022-09-07T07:20:43.215Z,7.05
2022-09-07T07:23:12.805Z,6.68
2022-09-07T07:25:40.784Z,6.85
2022-09-07T07:30:59.184Z,9.57
2022-09-07T07:33:30.916Z,12.82
2022-09-07T07:36:11.461Z,7.18
2022-09-07T07:44:21.390Z,6.65
2022-09-07T07:46:50.024Z,6.97
2022-09-07T07:49:18.310Z,8.98
2022-09-07T07:54:36.757Z,5.15
2022-09-07T07:57:05.712Z,5.35
2022-09-07T07:59:35.098Z,9.98
2022-09-07T08:02:05.055Z,10.90
2022-09-07T08:04:34.214Z,7.72
2022-09-07T08:07:06.974Z,9.88
2022-09-07T08:09:38.134Z,6.63
2022-09-07T08:12:06.703Z,6.47
2022-09-07T08:14:40.826Z,8.70
2022-09-07T08:17:09.962Z,8.07
2022-09-07T08:19:37.974Z,7.55
2022-09-07T08:22:06.324Z,7.30
2022-09-07T08:24:34.783Z,7.82
2022-09-07T08:27:02.841Z,8.20
2022-09-07T08:29:34.661Z,8.20
2022-09-07T08:32:06.503Z,5.28
2022-09-07T08:34:36.882Z,7.57
2022-09-07T08:37:05.030Z,10.57
2022-09-07T08:39:33.046Z,30.00
2022-09-07T08:42:15.512Z,12.48
2022-09-07T08:44:47.327Z,17.80
2022-09-07T08:47:25.989Z,16.40
2022-09-07T08:50:00.357Z,8.75
2022-09-07T08:52:35.454Z,8.65
2022-09-07T08:55:13.827Z,7.25
2022-09-07T08:57:46.362Z,9.63
2022-09-07T09:00:16.968Z,8.70
2022-09-07T09:03:28.629Z,10.38
2022-09-07T09:05:47.160Z,5.25
2022-09-07T09:08:27.969Z,6.75
2022-09-07T09:11:07.355Z,4.88
2022-09-07T09:13:55.710Z,5.35
2022-09-07T09:16:34.992Z,4.95
2022-09-07T09:19:51.864Z,6.10
2022-09-07T09:22:22.834Z,5.93
2022-09-07T09:24:56.675Z,9.40
2022-09-07T09:27:24.631Z,8.13
2022-09-07T09:29:52.768Z,10.20
2022-09-07T09:32:36.208Z,6.80
2022-09-07T09:35:14.714Z,7.10
2022-09-07T09:37:44.180Z,4.80
2022-09-07T09:40:27.004Z,5.35
2022-09-07T09:43:03.531Z,9.95
2022-09-07T09:48:33.567Z,5.20
2022-09-07T09:54:05.894Z,4.85
2022-09-07T09:56:41.330Z,10.23
2022-09-07T10:05:26.776Z,6.47
2022-09-07T10:07:56.720Z,7.80
2022-09-07T10:10:26.083Z,9.57
2022-09-07T10:12:55.208Z,7.85
2022-09-07T10:15:37.702Z,4.53
2022-09-07T10:18:09.642Z,5.22
2022-09-07T10:20:38.873Z,2.95
2022-09-07T10:23:21.591Z,5.45
2022-09-07T10:25:49.718Z,4.93
2022-09-07T10:28:21.204Z,7.63
2022-09-07T10:31:15.070Z,8.70
2022-09-07T10:36:43.391Z,4.85
2022-09-07T10:39:20.488Z,4.32
2022-09-07T10:41:59.395Z,7.13
2022-09-07T10:44:42.689Z,8.25
2022-09-07T10:47:18.500Z,6.82
2022-09-07T10:52:50.457Z,3.42
2022-09-07T10:55:26.204Z,3.95
2022-09-07T10:58:08.973Z,5.30
2022-09-07T11:00:43.538Z,3.30
2022-09-07T11:03:39.650Z,6.03
2022-09-07T11:06:16.007Z,3.85
2022-09-07T11:12:07.911Z,5.05
2022-09-07T11:14:42.346Z,3.83
2022-09-07T11:17:18.012Z,8.05
2022-09-07T11:19:55.598Z,4.82
2022-09-07T11:22:34.427Z,3.75
2022-09-07T11:28:02.615Z,3.85
2022-09-07T11:30:35.822Z,3.85
2022-09-07T11:33:13.495Z,12.00
2022-09-07T11:35:46.955Z,3.85
2022-09-07T11:38:22.037Z,5.53
2022-09-07T11:41:11.304Z,4.28
2022-09-07T11:43:44.576Z,3.58
2022-09-07T11:46:17.468Z,4.35
2022-09-07T11:48:48.773Z,4.22
2022-09-07T11:51:22.269Z,3.55
2022-09-07T11:53:54.909Z,6.57
2022-09-07T11:56:36.327Z,4.53
2022-09-07T11:59:24.772Z,6.30
2022-09-07T12:02:09.011Z,3.80
2022-09-07T12:04:55.496Z,7.07
2022-09-07T12:07:40.003Z,6.25
2022-09-07T12:10:37.719Z,2.92
2022-09-07T12:13:35.002Z,3.83
2022-09-07T12:16:09.286Z,4.13
2022-09-07T12:19:12.869Z,5.07
2022-09-07T12:21:43.661Z,4.05
2022-09-07T12:24:43.499Z,4.70
2022-09-07T12:27:39.555Z,4.10
2022-09-07T12:30:49.511Z,4.13
2022-09-07T12:33:30.797Z,6.30
2022-09-07T12:36:00.869Z,2.95
2022-09-07T12:39:09.631Z,4.18
2022-09-07T12:42:31.901Z,3.17
2022-09-07T12:44:39.080Z,4.55
2022-09-07T12:47:31.898Z,6.85
2022-09-07T12:50:19.633Z,5.85
2022-09-07T12:53:11.422Z,3.47
2022-09-07T12:58:57.048Z,5.90
2022-09-07T13:01:44.112Z,4.68
2022-09-07T13:04:42.564Z,4.05
2022-09-07T13:07:29.794Z,6.05
2022-09-07T13:10:00.815Z,3.75
2022-09-07T13:15:38.636Z,3.28
2022-09-07T13:18:10.375Z,5.78
2022-09-07T13:20:40.753Z,3.15
2022-09-07T13:23:21.838Z,5.00
2022-09-07T13:25:55.997Z,5.32
2022-09-07T13:28:31.382Z,5.38
2022-09-07T13:31:10.372Z,4.63
2022-09-07T13:33:48.169Z,8.00
2022-09-07T13:36:26.893Z,7.85
2022-09-07T13:38:56.678Z,5.22
2022-09-07T13:41:29.522Z,5.90
2022-09-07T13:44:01.615Z,3.67
2022-09-07T13:46:41.767Z,4.25
2022-09-07T13:49:22.383Z,4.22
2022-09-07T13:51:55.961Z,5.95
2022-09-07T13:54:42.425Z,3.75
2022-09-07T13:57:21.108Z,8.38
2022-09-07T13:59:51.984Z,3.47
2022-09-07T14:02:25.332Z,4.32
2022-09-07T14:04:58.489Z,8.00
2022-09-07T14:07:29.096Z,4.38
2022-09-07T14:10:19.299Z,5.07
2022-09-07T14:12:49.842Z,6.60
2022-09-07T14:15:28.245Z,4.43
2022-09-07T14:18:04.436Z,11.50
2022-09-07T14:20:37.902Z,5.40
2022-09-07T14:23:12.581Z,7.15
2022-09-07T14:28:32.275Z,4.00
2022-09-07T14:31:01.048Z,4.72
2022-09-07T14:33:30.904Z,5.32
2022-09-07T14:36:06.189Z,4.72
2022-09-07T14:41:38.502Z,4.47
2022-09-07T14:44:06.585Z,6.97
2022-09-07T14:46:35.137Z,10.13
2022-09-07T14:49:07.628Z,6.38
2022-09-07T14:51:37.053Z,4.63
2022-09-07T14:54:08.021Z,6.80
2022-09-07T14:56:39.164Z,5.65
2022-09-07T14:59:29.147Z,7.03
2022-09-07T15:02:24.000Z,5.45
2022-09-07T15:05:25.830Z,4.80
2022-09-07T15:07:56.207Z,9.98
2022-09-07T15:10:31.587Z,4.00
2022-09-07T15:13:06.156Z,6.45
2022-09-07T15:15:37.449Z,4.03
2022-09-07T15:18:27.629Z,4.13
2022-09-07T15:20:55.694Z,5.13
2022-09-07T15:23:23.647Z,5.20
2022-09-07T15:25:54.154Z,8.02
2022-09-07T15:34:10.722Z,4.97
2022-09-07T15:36:40.735Z,4.68
2022-09-07T15:39:15.246Z,6.88
2022-09-07T15:41:43.298Z,5.85
2022-09-07T15:44:13.856Z,5.35
2022-09-07T15:46:42.455Z,6.03
2022-09-07T15:49:12.505Z,4.45
2022-09-07T15:54:35.041Z,10.73
2022-09-07T15:59:54.150Z,7.97
2022-09-07T16:05:11.423Z,5.85
2022-09-07T16:10:30.980Z,7.97
2022-09-07T16:13:01.958Z,6.65
2022-09-07T16:15:33.890Z,7.82
2022-09-07T16:18:02.245Z,4.57
2022-09-07T16:20:32.419Z,12.95
2022-09-07T16:23:17.365Z,6.18
2022-09-07T16:25:57.278Z,6.22
2022-09-07T16:28:25.874Z,6.55
2022-09-07T16:30:56.293Z,7.13
2022-09-07T16:33:32.735Z,6.75
2022-09-07T16:36:09.603Z,11.50
2022-09-07T16:38:45.699Z,9.75
2022-09-07T16:41:15.041Z,5.05
2022-09-07T16:43:43.040Z,5.35
2022-09-07T16:46:16.182Z,7.32
2022-09-07T16:48:45.648Z,7.07
2022-09-07T16:51:16.308Z,7.75
2022-09-07T16:53:45.102Z,7.25
2022-09-07T16:56:16.961Z,7.15
2022-09-07T16:58:48.025Z,5.15
2022-09-07T17:01:18.838Z,8.23
2022-09-07T17:03:49.345Z,5.32
2022-09-07T17:06:20.170Z,6.30
2022-09-07T17:08:48.515Z,7.30
2022-09-07T17:11:18.248Z,7.00
2022-09-07T17:13:46.696Z,5.97
2022-09-07T17:16:20.745Z,4.72
2022-09-07T17:21:39.555Z,5.78
2022-09-07T17:24:09.873Z,7.05
2022-09-07T17:26:38.691Z,6.15
2022-09-07T17:29:08.408Z,6.90
2022-09-07T17:34:26.895Z,5.55
2022-09-07T17:36:55.611Z,7.82
2022-09-07T17:39:26.778Z,8.38
2022-09-07T17:41:55.214Z,5.82
2022-09-07T17:44:24.121Z,7.15
2022-09-07T17:46:55.020Z,5.22
2022-09-07T17:49:22.947Z,6.35
2022-09-07T17:51:50.926Z,5.65
2022-09-07T17:54:21.632Z,5.65
2022-09-07T17:56:52.433Z,7.28
2022-09-07T18:02:11.228Z,7.65
2022-09-07T18:04:39.218Z,7.47
2022-09-07T18:07:07.237Z,7.75
2022-09-07T18:09:35.316Z,8.88
2022-09-07T18:12:03.722Z,6.32
2022-09-07T18:14:32.159Z,7.63
2022-09-07T18:17:00.263Z,5.57
2022-09-07T18:19:29.526Z,6.07
2022-09-07T18:21:57.481Z,6.97
2022-09-07T18:24:25.592Z,6.88
2022-09-07T18:26:54.901Z,7.78
2022-09-07T18:29:31.307Z,9.38
2022-09-07T18:32:01.057Z,6.07
2022-09-07T18:34:31.718Z,7.65
2022-09-07T18:37:00.612Z,6.72
2022-09-07T18:39:29.434Z,7.22
2022-09-07T18:41:59.402Z,5.55
2022-09-07T18:47:22.241Z,6.72
2022-09-07T18:49:57.145Z,8.90
2022-09-07T18:55:16.176Z,5.00
2022-09-07T18:57:44.938Z,7.10
2022-09-07T19:00:14.232Z,7.63
2022-09-07T19:02:42.730Z,9.98
2022-09-07T19:08:03.144Z,5.85
2022-09-07T19:10:34.018Z,7.50
2022-09-07T19:13:02.037Z,7.55
2022-09-07T19:15:35.134Z,8.52
2022-09-07T19:18:07.374Z,9.73
2022-09-07T19:20:38.398Z,10.85
2022-09-07T19:23:06.941Z,9.38
2022-09-07T19:25:43.657Z,13.70
2022-09-07T19:28:11.612Z,10.63
2022-09-07T19:30:39.656Z,14.60
2022-09-07T19:33:11.310Z,10.57
2022-09-07T19:35:44.093Z,8.63
2022-09-07T19:38:13.386Z,9.18
2022-09-07T19:40:42.277Z,15.52
2022-09-07T19:43:17.898Z,8.43
2022-09-07T19:45:46.669Z,7.90
2022-09-07T19:48:16.362Z,13.63
2022-09-07T19:50:51.283Z,11.18
2022-09-07T19:53:20.054Z,13.25
2022-09-07T19:55:48.288Z,15.73
2022-09-07T19:58:16.287Z,15.13
2022-09-07T20:00:44.420Z,13.82
2022-09-07T20:03:12.584Z,18.45
2022-09-07T20:05:41.370Z,14.48
2022-09-07T20:08:10.689Z,12.50
2022-09-07T20:10:38.645Z,21.65
2022-09-07T20:13:06.868Z,14.70
2022-09-07T20:15:34.861Z,16.42
2022-09-07T20:18:04.056Z,16.38
2022-09-07T20:20:34.413Z,13.40
2022-09-07T20:23:02.379Z,11.30
2022-09-07T20:25:33.264Z,13.77
2022-09-07T20:28:01.670Z,11.00
2022-09-07T20:30:33.492Z,9.27
2022-09-07T20:33:01.775Z,7.78
2022-09-07T20:35:32.509Z,8.05
2022-09-07T20:38:02.290Z,12.82
2022-09-07T20:40:33.235Z,7.57
2022-09-07T20:43:01.173Z,8.70
2022-09-07T20:45:31.950Z,8.65
2022-09-07T20:47:59.995Z,10.50
2022-09-07T20:50:29.883Z,8.85
2022-09-07T20:52:57.858Z,5.75
2022-09-07T20:55:25.855Z,11.15
2022-09-07T20:57:56.377Z,9.05
2022-09-07T21:00:26.087Z,10.88
2022-09-07T21:02:54.048Z,10.60
2022-09-07T21:05:22.347Z,10.65
2022-09-07T21:07:50.308Z,5.65
2022-09-07T21:10:18.434Z,7.88
2022-09-07T21:12:46.377Z,8.88
2022-09-07T21:15:15.819Z,8.43
2022-09-07T21:17:43.778Z,6.82
2022-09-07T21:20:11.805Z,9.50
2022-09-07T21:22:39.737Z,9.13
2022-09-07T21:25:09.628Z,7.10
2022-09-07T21:27:40.565Z,10.50
2022-09-07T21:30:09.561Z,12.05
2022-09-07T21:32:41.489Z,9.32
2022-09-07T21:35:11.024Z,9.00
2022-09-07T21:37:39.839Z,8.45
2022-09-07T21:40:08.897Z,8.00
2022-09-07T21:42:36.899Z,13.45
2022-09-07T21:45:06.991Z,10.52
2022-09-07T21:47:34.925Z,14.57
2022-09-07T21:50:05.659Z,9.88
2022-09-07T21:52:33.611Z,7.30
2022-09-07T21:55:01.576Z,8.15
2022-09-07T21:57:29.513Z,6.28
2022-09-07T22:00:00.776Z,8.57
2022-09-07T22:02:28.756Z,7.75
2022-09-07T22:04:56.692Z,12.65
2022-09-07T22:07:26.072Z,6.35
2022-09-07T22:09:54.014Z,11.40
2022-09-07T22:12:22.005Z,10.27
2022-09-07T22:14:50.006Z,9.05
2022-09-07T22:17:17.928Z,10.18
2022-09-07T22:19:45.997Z,10.40
2022-09-07T22:22:14.046Z,9.02
2022-09-07T22:24:43.319Z,10.60
2022-09-07T22:27:11.549Z,9.68
2022-09-07T22:29:39.597Z,8.15
2022-09-07T22:32:07.570Z,8.23
2022-09-07T22:34:35.494Z,8.27
2022-09-07T22:37:03.460Z,7.93
2022-09-07T22:39:31.806Z,5.95
2022-09-07T22:42:01.092Z,5.05
2022-09-07T22:44:29.977Z,8.55
2022-09-07T22:46:58.240Z,9.65
2022-09-07T22:49:26.228Z,7.93
2022-09-07T22:51:54.147Z,7.47
2022-09-07T22:54:22.189Z,6.70
2022-09-07T22:56:50.161Z,7.13
2022-09-07T22:59:19.444Z,8.88
2022-09-07T23:01:47.394Z,9.10
2022-09-07T23:04:15.449Z,6.53
2022-09-07T23:06:44.290Z,9.80
2022-09-07T23:09:14.510Z,14.50
2022-09-07T23:11:42.935Z,7.85
2022-09-07T23:14:14.932Z,6.80
2022-09-07T23:16:45.199Z,9.73
2022-09-07T23:19:14.956Z,7.30
2022-09-07T23:21:42.981Z,8.85
2022-09-07T23:24:13.558Z,6.75
2022-09-07T23:26:41.857Z,9.75
2022-09-07T23:29:12.724Z,7.93
2022-09-07T23:31:41.115Z,8.13
2022-09-07T23:34:10.841Z,7.32
2022-09-07T23:36:38.772Z,10.75
2022-09-07T23:39:06.892Z,9.13
2022-09-07T23:41:34.843Z,9.13
2022-09-07T23:44:03.041Z,7.47
2022-09-07T23:46:31.043Z,12.80
2022-09-07T23:48:58.968Z,9.25
2022-09-07T23:51:28.594Z,7.43
2022-09-07T23:53:57.540Z,9.10
2022-09-07T23:56:25.512Z,7.45
2022-09-07T23:58:53.428Z,8.10
